createdAt,value
2019-02-03T00:00:32.949Z,4.44
2019-02-03T00:01:33.585Z,4.4
2019-02-03T00:02:32.824Z,4.4
2019-02-03T00:03:33.060Z,4.41
2019-02-03T00:04:33.045Z,4.4
2019-02-03T00:05:32.784Z,4.42
2019-02-03T00:06:33.812Z,4.41
2019-02-03T00:07:33.072Z,4.4
2019-02-03T00:08:32.788Z,4.36
2019-02-03T00:09:32.657Z,4.39
2019-02-03T00:10:32.681Z,4.39
2019-02-03T00:11:32.841Z,4.35
2019-02-03T00:12:33.100Z,4.39
2019-02-03T00:13:32.915Z,4.36
2019-02-03T00:14:32.819Z,4.35
2019-02-03T00:15:32.810Z,4.35
2019-02-03T00:16:32.690Z,4.34
2019-02-03T00:17:32.633Z,4.33
2019-02-03T00:18:35.006Z,4.31
2019-02-03T00:19:33.040Z,4.32
2019-02-03T00:20:32.887Z,4.28
2019-02-03T00:21:32.686Z,4.28
2019-02-03T00:22:32.631Z,4.29
2019-02-03T00:23:35.246Z,4.27
2019-02-03T00:24:32.646Z,4.27
2019-02-03T00:25:32.729Z,4.26
2019-02-03T00:26:32.677Z,4.25
2019-02-03T00:27:32.679Z,4.26
2019-02-03T00:28:32.633Z,4.24
2019-02-03T00:29:32.762Z,4.27
2019-02-03T00:30:33.336Z,4.23
2019-02-03T00:31:34.948Z,4.23
2019-02-03T00:32:32.639Z,4.22
2019-02-03T00:33:32.781Z,4.22
2019-02-03T00:34:32.788Z,4.21
2019-02-03T00:35:33.632Z,4.21
2019-02-03T00:36:32.600Z,4.2
2019-02-03T00:37:33.129Z,4.2
2019-02-03T00:38:33.007Z,4.21
2019-02-03T00:39:35.021Z,4.21
2019-02-03T00:40:33.241Z,4.22
2019-02-03T00:41:33.342Z,4.19
2019-02-03T00:42:32.717Z,4.16
2019-02-03T00:43:32.745Z,4.16
2019-02-03T00:44:32.730Z,4.16
2019-02-03T00:45:33.018Z,4.18
2019-02-03T00:46:33.099Z,4.18
2019-02-03T00:47:32.787Z,4.15
2019-02-03T00:48:32.937Z,4.16
2019-02-03T00:49:32.620Z,4.15
2019-02-03T00:50:32.899Z,4.14
2019-02-03T00:51:32.661Z,4.15
2019-02-03T00:52:32.751Z,4.14
2019-02-03T00:53:32.586Z,4.12
2019-02-03T00:54:32.883Z,4.13
2019-02-03T00:55:32.991Z,4.12
2019-02-03T00:56:32.825Z,4.09
2019-02-03T00:57:32.870Z,4.1
2019-02-03T00:58:33.543Z,4.09
2019-02-03T00:59:32.568Z,4.08
2019-02-03T01:00:32.951Z,4.08
2019-02-03T01:01:32.848Z,4.07
2019-02-03T01:02:33.048Z,4.05
2019-02-03T01:03:34.414Z,4.02
2019-02-03T01:04:35.041Z,4.03
2019-02-03T01:05:32.704Z,4.04
2019-02-03T01:06:32.704Z,4.03
2019-02-03T01:07:32.539Z,4.02
2019-02-03T01:08:32.558Z,4.01
2019-02-03T01:09:34.314Z,4.02
2019-02-03T01:10:32.743Z,3.98
2019-02-03T01:11:32.601Z,3.97
2019-02-03T01:12:34.923Z,3.96
2019-02-03T01:13:33.008Z,3.96
2019-02-03T01:14:32.520Z,3.95
2019-02-03T01:15:32.966Z,3.92
2019-02-03T01:16:32.882Z,3.93
2019-02-03T01:17:32.563Z,3.94
2019-02-03T01:18:32.833Z,3.92
2019-02-03T01:19:32.644Z,3.94
2019-02-03T01:20:35.217Z,3.91
2019-02-03T01:21:34.381Z,3.94
2019-02-03T01:22:32.735Z,3.91
2019-02-03T01:23:32.922Z,3.87
2019-02-03T01:24:32.761Z,3.9
2019-02-03T01:25:32.768Z,3.88
2019-02-03T01:26:32.493Z,3.85
2019-02-03T01:27:32.706Z,3.88
2019-02-03T01:28:35.041Z,3.9
2019-02-03T01:29:33.143Z,3.88
2019-02-03T01:30:32.731Z,3.88
2019-02-03T01:31:32.647Z,3.86
2019-02-03T01:32:32.541Z,3.85
2019-02-03T01:33:32.651Z,3.88
2019-02-03T01:34:32.856Z,3.84
2019-02-03T01:35:32.733Z,3.84
2019-02-03T01:36:34.810Z,3.84
2019-02-03T01:37:43.791Z,3.84
2019-02-03T01:38:32.656Z,3.84
2019-02-03T01:39:33.189Z,3.8
2019-02-03T01:40:32.715Z,3.78
2019-02-03T01:41:32.578Z,3.79
2019-02-03T01:42:32.623Z,3.78
2019-02-03T01:43:32.510Z,3.78
2019-02-03T01:44:34.689Z,3.78
2019-02-03T01:45:32.605Z,3.79
2019-02-03T01:46:32.567Z,3.79
2019-02-03T01:47:32.528Z,3.76
2019-02-03T01:48:32.561Z,3.75
2019-02-03T01:49:32.743Z,3.75
2019-02-03T01:50:32.578Z,3.74
2019-02-03T01:51:32.514Z,3.75
2019-02-03T01:52:34.184Z,3.74
2019-02-03T01:53:32.700Z,3.71
2019-02-03T01:54:32.546Z,3.7
2019-02-03T01:55:32.484Z,3.69
2019-02-03T01:56:32.513Z,3.65
2019-02-03T01:57:32.489Z,3.64
2019-02-03T01:58:32.440Z,3.64
2019-02-03T01:59:32.502Z,3.64
2019-02-03T02:00:32.508Z,3.64
2019-02-03T02:01:32.802Z,3.65
2019-02-03T02:02:32.456Z,3.63
2019-02-03T02:03:32.456Z,3.62
2019-02-03T02:04:32.512Z,3.61
2019-02-03T02:05:32.472Z,3.6
2019-02-03T02:06:32.493Z,3.57
2019-02-03T02:07:32.470Z,3.59
2019-02-03T02:08:32.463Z,3.57
2019-02-03T02:09:32.485Z,3.56
2019-02-03T02:10:32.472Z,3.57
2019-02-03T02:11:32.921Z,3.59
2019-02-03T02:12:32.538Z,3.56
2019-02-03T02:13:32.562Z,3.54
2019-02-03T02:14:32.677Z,3.53
2019-02-03T02:15:32.477Z,3.53
2019-02-03T02:16:32.485Z,3.55
2019-02-03T02:17:36.455Z,3.53
2019-02-03T02:18:32.729Z,3.53
2019-02-03T02:19:32.427Z,3.5
2019-02-03T02:20:32.745Z,3.51
2019-02-03T02:21:32.476Z,3.52
2019-02-03T02:22:32.787Z,3.52
2019-02-03T02:23:32.500Z,3.51
2019-02-03T02:24:33.932Z,3.51
2019-02-03T02:25:32.558Z,3.51
2019-02-03T02:26:33.208Z,3.51
2019-02-03T02:27:32.458Z,3.49
2019-02-03T02:28:32.416Z,3.49
2019-02-03T02:29:32.593Z,3.49
2019-02-03T02:30:32.779Z,3.47
2019-02-03T02:31:32.497Z,3.48
2019-02-03T02:32:34.263Z,3.49
2019-02-03T02:33:32.727Z,3.51
2019-02-03T02:34:32.767Z,3.48
2019-02-03T02:35:32.502Z,3.5
2019-02-03T02:36:32.831Z,3.51
2019-02-03T02:37:32.408Z,3.48
2019-02-03T02:38:32.391Z,3.5
2019-02-03T02:39:35.781Z,3.5
2019-02-03T02:40:32.550Z,3.47
2019-02-03T02:41:32.754Z,3.5
2019-02-03T02:42:32.451Z,3.46
2019-02-03T02:43:32.458Z,3.45
2019-02-03T02:44:32.536Z,3.45
2019-02-03T02:45:32.460Z,3.45
2019-02-03T02:46:32.730Z,3.45
2019-02-03T02:47:32.463Z,3.48
2019-02-03T02:48:32.504Z,3.44
2019-02-03T02:49:32.607Z,3.43
2019-02-03T02:50:32.419Z,3.42
2019-02-03T02:51:34.193Z,3.44
2019-02-03T02:52:32.499Z,3.4
2019-02-03T02:53:34.211Z,3.39
2019-02-03T02:54:32.501Z,3.39
2019-02-03T02:55:32.651Z,3.4
2019-02-03T02:56:32.901Z,3.4
2019-02-03T02:57:35.045Z,3.38
2019-02-03T02:58:32.466Z,3.37
2019-02-03T02:59:32.394Z,3.36
2019-02-03T03:00:34.200Z,3.35
2019-02-03T03:01:32.642Z,3.35
2019-02-03T03:02:32.412Z,3.36
2019-02-03T03:03:32.667Z,3.39
2019-02-03T03:04:32.461Z,3.38
2019-02-03T03:05:32.631Z,3.37
2019-02-03T03:06:32.709Z,3.34
2019-02-03T03:07:32.446Z,3.37
2019-02-03T03:08:32.383Z,3.34
2019-02-03T03:09:32.708Z,3.34
2019-02-03T03:10:32.716Z,3.34
2019-02-03T03:11:32.629Z,3.34
2019-02-03T03:12:33.023Z,3.33
2019-02-03T03:13:35.069Z,3.32
2019-02-03T03:14:32.387Z,3.32
2019-02-03T03:15:32.571Z,3.34
2019-02-03T03:16:32.623Z,3.34
2019-02-03T03:17:32.493Z,3.34
2019-02-03T03:18:32.558Z,3.33
2019-02-03T03:19:32.376Z,3.33
2019-02-03T03:20:32.464Z,3.33
2019-02-03T03:21:35.169Z,3.36
2019-02-03T03:22:32.377Z,3.34
2019-02-03T03:23:32.624Z,3.33
2019-02-03T03:24:32.466Z,3.34
2019-02-03T03:25:32.321Z,3.34
2019-02-03T03:26:32.378Z,3.33
2019-02-03T03:27:32.928Z,3.33
2019-02-03T03:28:32.414Z,3.32
2019-02-03T03:29:36.291Z,3.3
2019-02-03T03:30:32.567Z,3.35
2019-02-03T03:31:32.662Z,3.34
2019-02-03T03:32:32.528Z,3.34
2019-02-03T03:33:32.504Z,3.35
2019-02-03T03:34:32.341Z,3.36
2019-02-03T03:35:35.183Z,3.34
2019-02-03T03:36:32.345Z,3.34
2019-02-03T03:37:34.920Z,3.32
2019-02-03T03:38:33.024Z,3.32
2019-02-03T03:39:32.513Z,3.32
2019-02-03T03:40:32.300Z,3.29
2019-02-03T03:41:32.333Z,3.3
2019-02-03T03:42:32.395Z,3.28
2019-02-03T03:43:32.947Z,3.26
2019-02-03T03:44:32.400Z,3.29
2019-02-03T03:45:34.460Z,3.26
2019-02-03T03:46:32.705Z,3.26
2019-02-03T03:47:32.391Z,3.26
2019-02-03T03:48:32.386Z,3.23
2019-02-03T03:49:32.388Z,3.21
2019-02-03T03:50:32.367Z,3.2
2019-02-03T03:51:32.524Z,3.23
2019-02-03T03:52:32.289Z,3.23
2019-02-03T03:53:33.799Z,3.21
2019-02-03T03:54:32.700Z,3.21
2019-02-03T03:55:32.319Z,3.2
2019-02-03T03:56:32.481Z,3.22
2019-02-03T03:57:32.364Z,3.2
2019-02-03T03:58:32.261Z,3.2
2019-02-03T03:59:32.452Z,3.2
2019-02-03T04:00:32.438Z,3.21
2019-02-03T04:01:32.863Z,3.21
2019-02-03T04:02:32.428Z,3.24
2019-02-03T04:03:32.533Z,3.23
2019-02-03T04:04:32.756Z,3.21
2019-02-03T04:05:32.300Z,3.22
2019-02-03T04:06:32.577Z,3.21
2019-02-03T04:07:32.389Z,3.22
2019-02-03T04:08:46.021Z,3.2
2019-02-03T04:09:33.035Z,3.19
2019-02-03T04:10:32.261Z,3.19
2019-02-03T04:11:32.324Z,3.19
2019-02-03T04:12:32.543Z,3.19
2019-02-03T04:13:32.947Z,3.2
2019-02-03T04:14:32.390Z,3.17
2019-02-03T04:15:32.562Z,3.16
2019-02-03T04:16:32.645Z,3.16
2019-02-03T04:17:32.321Z,3.19
2019-02-03T04:18:32.383Z,3.18
2019-02-03T04:19:32.681Z,3.2
2019-02-03T04:20:32.894Z,3.2
2019-02-03T04:21:33.005Z,3.2
2019-02-03T04:22:32.329Z,3.21
2019-02-03T04:23:32.269Z,3.19
2019-02-03T04:24:32.299Z,3.2
2019-02-03T04:25:32.339Z,3.2
2019-02-03T04:26:32.314Z,3.2
2019-02-03T04:27:32.502Z,3.19
2019-02-03T04:28:32.277Z,3.2
2019-02-03T04:29:32.574Z,3.2
2019-02-03T04:30:32.523Z,3.21
2019-02-03T04:31:32.320Z,3.19
2019-02-03T04:32:32.600Z,3.19
2019-02-03T04:33:32.254Z,3.21
2019-02-03T04:34:32.262Z,3.19
2019-02-03T04:35:32.661Z,3.19
2019-02-03T04:36:32.456Z,3.19
2019-02-03T04:37:32.501Z,3.18
2019-02-03T04:38:32.277Z,3.18
2019-02-03T04:39:32.487Z,3.19
2019-02-03T04:40:32.326Z,3.15
2019-02-03T04:41:32.265Z,3.15
2019-02-03T04:42:34.748Z,3.14
2019-02-03T04:43:32.535Z,3.15
2019-02-03T04:44:32.514Z,3.15
2019-02-03T04:45:32.209Z,3.14
2019-02-03T04:46:33.003Z,3.13
2019-02-03T04:47:32.371Z,3.1
2019-02-03T04:48:33.092Z,3.08
2019-02-03T04:49:32.703Z,3.09
2019-02-03T04:50:37.665Z,3.08
2019-02-03T04:51:32.290Z,3.07
2019-02-03T04:52:32.215Z,3.05
2019-02-03T04:53:32.521Z,3.06
2019-02-03T04:54:32.617Z,3.06
2019-02-03T04:55:33.513Z,3.04
2019-02-03T04:56:33.999Z,3.03
2019-02-03T04:57:32.418Z,3.02
2019-02-03T04:58:34.394Z,3.02
2019-02-03T04:59:32.402Z,3.03
2019-02-03T05:00:32.563Z,3.02
2019-02-03T05:01:32.431Z,3.01
2019-02-03T05:02:32.651Z,3.02
2019-02-03T05:03:32.256Z,3.01
2019-02-03T05:04:32.185Z,3.01
2019-02-03T05:05:32.366Z,2.99
2019-02-03T05:06:34.709Z,2.97
2019-02-03T05:07:32.280Z,2.95
2019-02-03T05:08:32.204Z,2.95
2019-02-03T05:09:32.618Z,2.95
2019-02-03T05:10:32.363Z,2.95
2019-02-03T05:11:32.202Z,2.92
2019-02-03T05:12:32.254Z,2.94
2019-02-03T05:13:32.668Z,2.92
2019-02-03T05:14:34.894Z,2.94
2019-02-03T05:15:32.239Z,2.93
2019-02-03T05:16:32.370Z,2.9
2019-02-03T05:17:32.305Z,2.91
2019-02-03T05:18:32.417Z,2.91
2019-02-03T05:19:32.311Z,2.9
2019-02-03T05:20:32.479Z,2.88
2019-02-03T05:21:32.364Z,2.87
2019-02-03T05:22:34.511Z,2.89
2019-02-03T05:23:32.194Z,2.87
2019-02-03T05:24:32.493Z,2.85
2019-02-03T05:25:32.510Z,2.84
2019-02-03T05:26:32.250Z,2.84
2019-02-03T05:27:32.315Z,2.84
2019-02-03T05:28:32.205Z,2.83
2019-02-03T05:29:32.229Z,2.83
2019-02-03T05:30:34.883Z,2.82
2019-02-03T05:31:32.252Z,2.83
2019-02-03T05:32:32.317Z,2.84
2019-02-03T05:33:32.270Z,2.84
2019-02-03T05:34:32.446Z,2.84
2019-02-03T05:35:32.366Z,2.84
2019-02-03T05:36:32.224Z,2.84
2019-02-03T05:37:32.485Z,2.84
2019-02-03T05:38:34.415Z,2.84
2019-02-03T05:39:32.407Z,2.85
2019-02-03T05:40:32.273Z,2.85
2019-02-03T05:41:32.306Z,2.88
2019-02-03T05:42:32.205Z,2.88
2019-02-03T05:43:33.959Z,2.87
2019-02-03T05:44:32.259Z,2.9
2019-02-03T05:45:32.362Z,2.88
2019-02-03T05:46:34.571Z,2.89
2019-02-03T05:47:32.556Z,2.89
2019-02-03T05:48:32.255Z,2.9
2019-02-03T05:49:32.253Z,2.9
2019-02-03T05:50:32.554Z,2.88
2019-02-03T05:51:32.893Z,2.9
2019-02-03T05:52:32.273Z,2.9
2019-02-03T05:53:32.244Z,2.91
2019-02-03T05:54:34.089Z,2.9
2019-02-03T05:55:32.430Z,2.92
2019-02-03T05:56:32.780Z,2.94
2019-02-03T05:57:32.342Z,2.91
2019-02-03T05:58:32.152Z,2.92
2019-02-03T05:59:32.086Z,2.94
2019-02-03T06:00:32.366Z,2.95
2019-02-03T06:01:32.899Z,2.95
2019-02-03T06:02:34.687Z,2.95
2019-02-03T06:03:32.408Z,2.95
2019-02-03T06:04:32.187Z,2.95
2019-02-03T06:05:32.274Z,2.93
2019-02-03T06:06:32.097Z,2.94
2019-02-03T06:07:32.648Z,2.94
2019-02-03T06:08:32.614Z,2.94
2019-02-03T06:09:37.475Z,2.91
2019-02-03T06:10:34.061Z,2.93
2019-02-03T06:11:32.177Z,2.94
2019-02-03T06:12:32.411Z,2.92
2019-02-03T06:13:32.269Z,2.94
2019-02-03T06:14:32.524Z,2.93
2019-02-03T06:15:32.450Z,2.93
2019-02-03T06:16:32.171Z,2.9
2019-02-03T06:17:32.142Z,2.9
2019-02-03T06:18:33.734Z,2.9
2019-02-03T06:19:32.769Z,2.9
2019-02-03T06:20:32.795Z,2.9
2019-02-03T06:21:32.219Z,2.89
2019-02-03T06:22:32.607Z,2.91
2019-02-03T06:23:32.481Z,2.9
2019-02-03T06:24:32.607Z,2.89
2019-02-03T06:25:32.610Z,2.9
2019-02-03T06:26:33.426Z,2.88
2019-02-03T06:27:32.807Z,2.88
2019-02-03T06:28:32.341Z,2.88
2019-02-03T06:29:32.348Z,2.88
2019-02-03T06:30:32.778Z,2.87
2019-02-03T06:31:33.955Z,2.86
2019-02-03T06:32:32.163Z,2.88
2019-02-03T06:33:32.714Z,2.88
2019-02-03T06:34:32.414Z,2.89
2019-02-03T06:35:32.214Z,2.87
2019-02-03T06:36:32.378Z,2.89
2019-02-03T06:37:32.234Z,2.86
2019-02-03T06:38:32.533Z,2.88
2019-02-03T06:39:32.214Z,2.88
2019-02-03T06:40:32.198Z,2.86
2019-02-03T06:41:32.410Z,2.88
2019-02-03T06:42:32.353Z,2.85
2019-02-03T06:43:36.884Z,2.86
2019-02-03T06:44:32.044Z,2.84
2019-02-03T06:45:34.075Z,2.85
2019-02-03T06:46:32.269Z,2.85
2019-02-03T06:47:32.474Z,2.85
2019-02-03T06:48:32.370Z,2.85
2019-02-03T06:49:32.620Z,2.87
2019-02-03T06:50:32.474Z,2.87
2019-02-03T06:51:35.379Z,2.87
2019-02-03T06:52:32.205Z,2.86
2019-02-03T06:53:32.380Z,2.88
2019-02-03T06:54:32.580Z,2.85
2019-02-03T06:55:32.496Z,2.88
2019-02-03T06:56:32.135Z,2.86
2019-02-03T06:57:32.392Z,2.88
2019-02-03T06:58:32.606Z,2.88
2019-02-03T06:59:35.212Z,2.86
2019-02-03T07:00:32.442Z,2.85
2019-02-03T07:01:32.295Z,2.88
2019-02-03T07:02:32.300Z,2.89
2019-02-03T07:03:32.257Z,2.85
2019-02-03T07:04:32.293Z,2.86
2019-02-03T07:05:32.083Z,2.88
2019-02-03T07:06:32.591Z,2.88
2019-02-03T07:07:34.895Z,2.88
2019-02-03T07:08:32.280Z,2.85
2019-02-03T07:09:32.219Z,2.84
2019-02-03T07:10:32.036Z,2.84
2019-02-03T07:11:32.052Z,2.83
2019-02-03T07:12:32.241Z,2.84
2019-02-03T07:13:32.070Z,2.82
2019-02-03T07:14:31.994Z,2.83
2019-02-03T07:15:37.027Z,2.81
2019-02-03T07:16:46.629Z,2.83
2019-02-03T07:17:32.349Z,2.82
2019-02-03T07:18:32.149Z,2.83
2019-02-03T07:19:32.450Z,2.83
2019-02-03T07:20:32.196Z,2.84
2019-02-03T07:21:32.279Z,2.84
2019-02-03T07:22:32.470Z,2.82
2019-02-03T07:23:34.907Z,2.83
2019-02-03T07:24:32.116Z,2.84
2019-02-03T07:25:32.182Z,2.83
2019-02-03T07:26:31.995Z,2.82
2019-02-03T07:27:32.066Z,2.83
2019-02-03T07:28:32.203Z,2.84
2019-02-03T07:29:32.569Z,2.84
2019-02-03T07:30:32.102Z,2.83
2019-02-03T07:31:34.272Z,2.84
2019-02-03T07:32:32.230Z,2.84
2019-02-03T07:33:31.910Z,2.84
2019-02-03T07:34:32.541Z,2.86
2019-02-03T07:35:31.957Z,2.87
2019-02-03T07:36:32.373Z,2.87
2019-02-03T07:37:32.096Z,2.85
2019-02-03T07:38:32.291Z,2.88
2019-02-03T07:39:34.292Z,2.86
2019-02-03T07:40:32.312Z,2.88
2019-02-03T07:41:31.932Z,2.86
2019-02-03T07:42:32.221Z,2.86
2019-02-03T07:43:32.203Z,2.84
2019-02-03T07:44:33.271Z,2.88
2019-02-03T07:45:32.070Z,2.85
2019-02-03T07:46:32.558Z,2.88
2019-02-03T07:47:34.570Z,2.89
2019-02-03T07:48:34.205Z,2.88
2019-02-03T07:49:32.562Z,2.86
2019-02-03T07:50:32.514Z,2.86
2019-02-03T07:51:32.360Z,2.88
2019-02-03T07:52:31.965Z,2.88
2019-02-03T07:53:32.291Z,2.86
2019-02-03T07:54:32.097Z,2.88
2019-02-03T07:55:34.433Z,2.89
2019-02-03T07:56:31.898Z,2.9
2019-02-03T07:57:32.259Z,2.89
2019-02-03T07:58:31.996Z,2.87
2019-02-03T07:59:32.771Z,2.91
2019-02-03T08:00:32.138Z,2.89
2019-02-03T08:01:32.038Z,2.9
2019-02-03T08:02:32.883Z,2.9
2019-02-03T08:03:34.257Z,2.9
2019-02-03T08:04:32.578Z,2.89
2019-02-03T08:05:32.582Z,2.89
2019-02-03T08:06:32.250Z,2.89
2019-02-03T08:07:32.153Z,2.9
2019-02-03T08:08:31.991Z,2.9
2019-02-03T08:09:32.714Z,2.9
2019-02-03T08:10:32.000Z,2.9
2019-02-03T08:11:34.445Z,2.93
2019-02-03T08:12:32.225Z,2.91
2019-02-03T08:13:32.218Z,2.93
2019-02-03T08:14:32.331Z,2.91
2019-02-03T08:15:33.658Z,2.9
2019-02-03T08:16:32.314Z,2.91
2019-02-03T08:17:31.882Z,2.91
2019-02-03T08:18:32.160Z,2.9
2019-02-03T08:19:34.732Z,2.9
2019-02-03T08:20:31.853Z,2.9
2019-02-03T08:21:32.311Z,2.9
2019-02-03T08:22:31.967Z,2.89
2019-02-03T08:23:32.067Z,2.9
2019-02-03T08:24:32.074Z,2.9
2019-02-03T08:25:31.844Z,2.92
2019-02-03T08:26:32.010Z,2.89
2019-02-03T08:27:32.401Z,2.89
2019-02-03T08:28:32.818Z,2.89
2019-02-03T08:29:32.077Z,2.92
2019-02-03T08:30:31.885Z,2.91
2019-02-03T08:31:31.876Z,2.9
2019-02-03T08:32:32.120Z,2.91
2019-02-03T08:33:33.696Z,2.92
2019-02-03T08:34:31.897Z,2.92
2019-02-03T08:35:35.626Z,2.9
2019-02-03T08:36:32.735Z,2.93
2019-02-03T08:37:31.898Z,2.94
2019-02-03T08:38:31.992Z,2.92
2019-02-03T08:39:32.211Z,2.94
2019-02-03T08:40:38.046Z,2.93
2019-02-03T08:41:31.881Z,2.95
2019-02-03T08:42:35.953Z,2.96
2019-02-03T08:43:32.163Z,2.95
2019-02-03T08:44:32.296Z,2.95
2019-02-03T08:45:32.191Z,2.95
2019-02-03T08:46:31.905Z,2.96
2019-02-03T08:47:32.467Z,2.97
2019-02-03T08:48:31.910Z,2.96
2019-02-03T08:49:32.445Z,2.95
2019-02-03T08:50:32.822Z,2.96
2019-02-03T08:51:32.814Z,3
2019-02-03T08:52:32.362Z,2.97
2019-02-03T08:53:31.851Z,3.02
2019-02-03T08:54:31.860Z,3
2019-02-03T08:55:31.867Z,3
2019-02-03T08:56:31.948Z,2.99
2019-02-03T08:57:43.162Z,3
2019-02-03T08:58:33.441Z,3.01
2019-02-03T08:59:37.440Z,3.02
2019-02-03T09:00:32.083Z,3.02
2019-02-03T09:01:31.896Z,3.01
2019-02-03T09:02:33.150Z,3.02
2019-02-03T09:03:32.106Z,3
2019-02-03T09:04:31.847Z,3
2019-02-03T09:05:32.090Z,3.01
2019-02-03T09:06:31.904Z,3.03
2019-02-03T09:07:34.417Z,3.03
2019-02-03T09:08:32.382Z,3.04
2019-02-03T09:09:31.842Z,3.06
2019-02-03T09:10:31.911Z,3.07
2019-02-03T09:11:31.919Z,3.05
2019-02-03T09:12:33.539Z,3.06
2019-02-03T09:13:32.456Z,3.05
2019-02-03T09:14:31.820Z,3.06
2019-02-03T09:15:32.733Z,3.03
2019-02-03T09:16:32.199Z,3.03
2019-02-03T09:17:32.287Z,3.04
2019-02-03T09:18:35.245Z,3.05
2019-02-03T09:19:32.088Z,3.03
2019-02-03T09:20:31.949Z,3.03
2019-02-03T09:21:31.877Z,3.02
2019-02-03T09:22:31.961Z,3.03
2019-02-03T09:23:31.849Z,3.01
2019-02-03T09:24:32.069Z,3.03
2019-02-03T09:25:31.777Z,3.02
2019-02-03T09:26:32.802Z,3.01
2019-02-03T09:27:32.320Z,2.97
2019-02-03T09:28:31.950Z,2.98
2019-02-03T09:29:33.335Z,3.01
2019-02-03T09:30:32.420Z,3.01
2019-02-03T09:31:34.281Z,2.99
2019-02-03T09:32:33.890Z,2.99
2019-02-03T09:33:32.116Z,3
2019-02-03T09:34:32.492Z,2.97
2019-02-03T09:35:32.725Z,3
2019-02-03T09:36:31.758Z,2.99
2019-02-03T09:37:31.777Z,2.95
2019-02-03T09:38:31.911Z,2.96
2019-02-03T09:39:32.235Z,2.98
2019-02-03T09:40:31.949Z,2.95
2019-02-03T09:41:32.083Z,2.97
2019-02-03T09:42:32.221Z,2.96
2019-02-03T09:43:32.481Z,2.97
2019-02-03T09:45:32.604Z,2.99
2019-02-03T09:46:35.180Z,2.98
2019-02-03T09:47:31.823Z,2.99
2019-02-03T09:48:31.762Z,3.01
2019-02-03T09:49:31.755Z,2.99
2019-02-03T09:50:32.237Z,3
2019-02-03T09:51:32.105Z,2.98
2019-02-03T09:52:32.087Z,3.02
2019-02-03T09:53:32.121Z,3.03
2019-02-03T09:54:31.856Z,3.01
2019-02-03T09:55:32.166Z,3.03
2019-02-03T09:56:31.973Z,3.02
2019-02-03T09:57:31.779Z,3.06
2019-02-03T09:58:32.750Z,3.05
2019-02-03T09:59:31.809Z,3.06
2019-02-03T10:00:32.143Z,3.07
2019-02-03T10:01:33.861Z,3.08
2019-02-03T10:02:33.037Z,3.09
2019-02-03T10:03:31.772Z,3.08
2019-02-03T10:04:31.741Z,3.09
2019-02-03T10:05:31.815Z,3.11
2019-02-03T10:06:31.902Z,3.14
2019-02-03T10:07:32.841Z,3.12
2019-02-03T10:08:41.302Z,3.15
2019-02-03T10:09:33.704Z,3.18
2019-02-03T10:10:32.721Z,3.16
2019-02-03T10:11:33.833Z,3.22
2019-02-03T10:12:31.771Z,3.2
2019-02-03T10:13:33.115Z,3.25
2019-02-03T10:14:34.276Z,3.23
2019-02-03T10:15:32.792Z,3.25
2019-02-03T10:16:31.856Z,3.25
2019-02-03T10:17:32.195Z,3.26
2019-02-03T10:18:32.370Z,3.28
2019-02-03T10:19:31.731Z,3.32
2019-02-03T10:20:31.678Z,3.32
2019-02-03T10:21:32.482Z,3.34
2019-02-03T10:22:31.690Z,3.36
2019-02-03T10:23:32.056Z,3.35
2019-02-03T10:24:42.789Z,3.4
2019-02-03T10:25:31.750Z,3.43
2019-02-03T10:26:31.777Z,3.4
2019-02-03T10:27:31.703Z,3.39
2019-02-03T10:28:32.023Z,3.41
2019-02-03T10:29:31.768Z,3.41
2019-02-03T10:30:31.671Z,3.43
2019-02-03T10:31:31.950Z,3.45
2019-02-03T10:32:31.705Z,3.48
2019-02-03T10:33:31.814Z,3.48
2019-02-03T10:34:31.810Z,3.55
2019-02-03T10:35:31.693Z,3.52
2019-02-03T10:36:31.886Z,3.5
2019-02-03T10:37:31.891Z,3.54
2019-02-03T10:38:31.684Z,3.53
2019-02-03T10:39:33.518Z,3.54
2019-02-03T10:40:32.170Z,3.52
2019-02-03T10:41:31.776Z,3.51
2019-02-03T10:42:31.911Z,3.52
2019-02-03T10:43:31.912Z,3.52
2019-02-03T10:44:31.722Z,3.52
2019-02-03T10:45:33.498Z,3.51
2019-02-03T10:46:31.886Z,3.54
2019-02-03T10:47:31.705Z,3.51
2019-02-03T10:48:31.927Z,3.49
2019-02-03T10:49:31.905Z,3.45
2019-02-03T10:50:34.490Z,3.44
2019-02-03T10:51:31.765Z,3.43
2019-02-03T10:52:31.684Z,3.42
2019-02-03T10:53:31.649Z,3.39
2019-02-03T10:54:31.996Z,3.39
2019-02-03T10:55:31.645Z,3.39
2019-02-03T10:56:31.802Z,3.37
2019-02-03T10:57:31.719Z,3.38
2019-02-03T10:58:34.028Z,3.38
2019-02-03T10:59:31.845Z,3.39
2019-02-03T11:00:31.834Z,3.39
2019-02-03T11:01:31.914Z,3.38
2019-02-03T11:02:31.995Z,3.38
2019-02-03T11:03:31.805Z,3.39
2019-02-03T11:04:31.777Z,3.39
2019-02-03T11:05:31.903Z,3.39
2019-02-03T11:06:31.781Z,3.4
2019-02-03T11:07:31.831Z,3.37
2019-02-03T11:08:32.342Z,3.38
2019-02-03T11:09:32.010Z,3.35
2019-02-03T11:10:32.347Z,3.36
2019-02-03T11:11:37.316Z,3.33
2019-02-03T11:12:31.874Z,3.37
2019-02-03T11:13:33.519Z,3.38
2019-02-03T11:14:31.705Z,3.35
2019-02-03T11:15:31.878Z,3.39
2019-02-03T11:16:31.654Z,3.39
2019-02-03T11:17:32.531Z,3.41
2019-02-03T11:18:31.679Z,3.41
2019-02-03T11:19:31.823Z,3.41
2019-02-03T11:20:31.805Z,3.42
2019-02-03T11:21:35.012Z,3.46
2019-02-03T11:22:31.725Z,3.48
2019-02-03T11:23:32.295Z,3.51
2019-02-03T11:24:31.801Z,3.56
2019-02-03T11:25:32.388Z,3.56
2019-02-03T11:26:31.861Z,3.57
2019-02-03T11:27:31.820Z,3.58
2019-02-03T11:28:33.293Z,3.56
2019-02-03T11:29:31.873Z,3.57
2019-02-03T11:30:32.023Z,3.59
2019-02-03T11:31:31.866Z,3.61
2019-02-03T11:32:31.806Z,3.59
2019-02-03T11:33:31.869Z,3.63
2019-02-03T11:34:31.846Z,3.65
2019-02-03T11:35:31.683Z,3.6
2019-02-03T11:36:34.491Z,3.63
2019-02-03T11:37:31.720Z,3.63
2019-02-03T11:38:32.158Z,3.6
2019-02-03T11:39:32.315Z,3.62
2019-02-03T11:40:31.763Z,3.59
2019-02-03T11:41:31.670Z,3.62
2019-02-03T11:42:31.949Z,3.62
2019-02-03T11:43:31.618Z,3.63
2019-02-03T11:44:31.871Z,3.64
2019-02-03T11:45:31.968Z,3.62
2019-02-03T11:46:31.754Z,3.63
2019-02-03T11:47:31.627Z,3.64
2019-02-03T11:48:31.719Z,3.64
2019-02-03T11:49:32.303Z,3.64
2019-02-03T11:50:32.302Z,3.64
2019-02-03T11:51:31.713Z,3.62
2019-02-03T11:52:31.695Z,3.62
2019-02-03T11:53:31.965Z,3.62
2019-02-03T11:54:31.874Z,3.62
2019-02-03T11:55:31.703Z,3.64
2019-02-03T11:56:31.604Z,3.65
2019-02-03T11:57:31.792Z,3.66
2019-02-03T11:58:31.591Z,3.64
2019-02-03T11:59:32.082Z,3.68
2019-02-03T12:00:32.161Z,3.68
2019-02-03T12:01:31.702Z,3.64
2019-02-03T12:02:42.669Z,3.61
2019-02-03T12:03:32.425Z,3.63
2019-02-03T12:04:31.717Z,3.66
2019-02-03T12:05:31.925Z,3.67
2019-02-03T12:06:32.257Z,3.69
2019-02-03T12:07:31.550Z,3.68
2019-02-03T12:08:34.199Z,3.67
2019-02-03T12:09:32.170Z,3.7
2019-02-03T12:10:31.896Z,3.72
2019-02-03T12:11:31.898Z,3.75
2019-02-03T12:12:31.870Z,3.75
2019-02-03T12:13:31.542Z,3.75
2019-02-03T12:14:31.704Z,3.78
2019-02-03T12:15:32.511Z,3.79
2019-02-03T12:16:33.535Z,3.84
2019-02-03T12:17:31.650Z,3.85
2019-02-03T12:18:32.657Z,3.84
2019-02-03T12:19:31.753Z,3.78
2019-02-03T12:20:31.864Z,3.8
2019-02-03T12:21:31.565Z,3.83
2019-02-03T12:22:31.575Z,3.83
2019-02-03T12:23:31.508Z,3.85
2019-02-03T12:24:33.061Z,3.86
2019-02-03T12:25:31.618Z,3.85
2019-02-03T12:26:31.532Z,3.84
2019-02-03T12:27:31.796Z,3.85
2019-02-03T12:28:31.539Z,3.89
2019-02-03T12:29:31.767Z,3.86
2019-02-03T12:30:31.550Z,3.82
2019-02-03T12:31:31.538Z,3.83
2019-02-03T12:32:31.712Z,3.82
2019-02-03T12:33:31.549Z,3.82
2019-02-03T12:34:31.632Z,3.8
2019-02-03T12:35:31.532Z,3.81
2019-02-03T12:36:31.517Z,3.78
2019-02-03T12:37:31.541Z,3.77
2019-02-03T12:38:31.526Z,3.75
2019-02-03T12:39:31.541Z,3.79
2019-02-03T12:40:31.758Z,3.76
2019-02-03T12:41:33.881Z,3.77
2019-02-03T12:42:31.553Z,3.74
2019-02-03T12:43:33.458Z,3.74
2019-02-03T12:44:32.520Z,3.73
2019-02-03T12:45:31.527Z,3.71
2019-02-03T12:46:31.734Z,3.7
2019-02-03T12:47:31.616Z,3.65
2019-02-03T12:48:31.575Z,3.64
2019-02-03T12:49:33.464Z,3.63
2019-02-03T12:50:32.089Z,3.6
2019-02-03T12:51:31.989Z,3.57
2019-02-03T12:52:31.695Z,3.56
2019-02-03T12:53:32.566Z,3.57
2019-02-03T12:54:31.770Z,3.57
2019-02-03T12:55:32.678Z,3.58
2019-02-03T12:56:31.888Z,3.58
2019-02-03T12:57:32.095Z,3.6
2019-02-03T12:58:32.082Z,3.58
2019-02-03T12:59:32.450Z,3.58
2019-02-03T13:00:31.793Z,3.57
2019-02-03T13:01:32.918Z,3.59
2019-02-03T13:02:31.684Z,3.61
2019-02-03T13:03:33.352Z,3.58
2019-02-03T13:04:33.180Z,3.58
2019-02-03T13:05:31.764Z,3.58
2019-02-03T13:06:31.600Z,3.6
2019-02-03T13:07:32.037Z,3.58
2019-02-03T13:08:31.791Z,3.61
2019-02-03T13:09:31.559Z,3.59
2019-02-03T13:10:31.687Z,3.59
2019-02-03T13:11:31.808Z,3.61
2019-02-03T13:12:32.348Z,3.6
2019-02-03T13:13:31.897Z,3.6
2019-02-03T13:14:31.576Z,3.61
2019-02-03T13:15:31.569Z,3.62
2019-02-03T13:16:31.487Z,3.62
2019-02-03T13:17:31.495Z,3.63
2019-02-03T13:18:32.851Z,3.62
2019-02-03T13:19:31.578Z,3.62
2019-02-03T13:20:31.858Z,3.61
2019-02-03T13:21:33.784Z,3.61
2019-02-03T13:22:31.486Z,3.59
2019-02-03T13:23:31.836Z,3.61